Time;durP1;ratioP1;P1;durP2;ratioP2;P2;SDS_P1;SDS_P2;PMS_P1;PMS_P2;Temp;Humidity;BMP_temperature;BMP_pressure;BME280_temperature;BME280_humidity;BME280_pressure;Samples;Min_cycle;Max_cycle;Signal;HPM_P1;HPM_P2
2022/01/11 00:01:54;;;;;;;23.67;13.68;;;;;;;2.01;100.00;100675.91;5074354;28;20250;-80
2022/01/11 00:04:28;;;;;;;24.55;13.15;;;;;;;1.97;100.00;100668.88;5074025;28;20198;-80
2022/01/11 00:06:55;;;;;;;17.00;11.52;;;;;;;1.78;100.00;100670.72;5071267;28;20209;-80
2022/01/11 00:09:30;;;;;;;23.20;14.27;;;;;;;1.88;100.00;100675.09;5073580;28;20281;-80
2022/01/11 00:11:57;;;;;;;27.52;14.15;;;;;;;1.65;100.00;100675.19;5070375;28;20193;-80
2022/01/11 00:14:24;;;;;;;19.30;13.00;;;;;;;1.57;100.00;100682.34;5067178;28;20639;-80
2022/01/11 00:16:52;;;;;;;22.65;13.88;;;;;;;1.79;100.00;100680.47;5074150;28;20283;-80
2022/01/11 00:19:19;;;;;;;24.08;13.88;;;;;;;1.98;100.00;100684.78;5073660;28;20291;-80
2022/01/11 00:21:48;;;;;;;20.42;12.38;;;;;;;2.02;100.00;100688.31;5073867;28;20292;-80
2022/01/11 00:24:30;;;;;;;25.42;12.50;;;;;;;1.75;100.00;100697.31;5073976;28;20198;-80
2022/01/11 00:27:01;;;;;;;23.05;13.25;;;;;;;1.71;100.00;100691.13;5073862;28;20200;-80
2022/01/11 00:29:29;;;;;;;21.02;12.85;;;;;;;1.74;100.00;100685.81;5073963;28;20212;-79
2022/01/11 00:32:01;;;;;;;23.15;13.05;;;;;;;1.85;100.00;100683.97;5073531;28;20221;-80
2022/01/11 00:34:39;;;;;;;23.58;14.13;;;;;;;1.75;100.00;100681.38;5073955;28;20580;-80
2022/01/11 00:37:06;;;;;;;21.77;12.82;;;;;;;1.50;100.00;100676.16;5072766;28;20204;-80
2022/01/11 00:39:33;;;;;;;22.38;13.05;;;;;;;1.53;100.00;100675.25;5073457;28;20209;-80
2022/01/11 00:42:00;;;;;;;29.30;12.98;;;;;;;1.43;100.00;100674.44;5072514;28;20277;-80
2022/01/11 00:44:27;;;;;;;19.05;11.88;;;;;;;1.36;100.00;100681.53;5073981;28;20277;-81
2022/01/11 00:46:53;;;;;;;22.30;13.43;;;;;;;1.65;100.00;100678.75;5073534;28;20657;-80
2022/01/11 00:49:21;;;;;;;26.48;15.40;;;;;;;1.55;100.00;100684.09;5073659;28;20262;-80
2022/01/11 00:51:48;;;;;;;23.10;15.15;;;;;;;1.73;100.00;100681.38;5073159;28;20264;-80
2022/01/11 00:54:15;;;;;;;37.47;12.65;;;;;;;1.21;100.00;100684.22;5073267;28;20266;-80
2022/01/11 00:56:42;;;;;;;23.20;13.00;;;;;;;1.28;100.00;100685.97;5073036;28;20686;-80
2022/01/11 00:59:09;;;;;;;20.02;13.05;;;;;;;1.58;100.00;100692.97;5065895;28;20673;-80
2022/01/11 01:01:37;;;;;;;31.15;15.68;;;;;;;1.46;100.00;100699.16;5073209;28;20244;-80
2022/01/11 01:04:05;;;;;;;22.33;12.18;;;;;;;1.70;100.00;100696.41;5072764;28;20193;-80
2022/01/11 01:06:33;;;;;;;22.70;13.15;;;;;;;1.54;100.00;100690.28;5073200;28;20272;-79
2022/01/11 01:09:00;;;;;;;23.40;12.80;;;;;;;1.67;100.00;100699.97;5071401;28;20201;-80
2022/01/11 01:11:27;;;;;;;20.40;12.70;;;;;;;1.60;100.00;100695.59;5072745;28;20239;-80
2022/01/11 01:13:53;;;;;;;28.25;13.75;;;;;;;1.16;100.00;100701.91;5073054;28;20276;-80
2022/01/11 01:16:21;;;;;;;24.85;12.60;;;;;;;1.34;100.00;100708.97;5073303;28;20626;-79
2022/01/11 01:18:48;;;;;;;26.23;13.10;;;;;;;1.03;100.00;100704.59;5072912;28;20189;-80
2022/01/11 01:21:14;;;;;;;19.98;11.77;;;;;;;0.94;100.00;100707.25;5072435;28;20295;-80
2022/01/11 01:23:42;;;;;;;23.98;12.93;;;;;;;0.77;100.00;100719.63;5072540;28;20227;-79
2022/01/11 01:26:09;;;;;;;22.75;12.90;;;;;;;1.07;100.00;100725.81;5072752;28;20274;-79
2022/01/11 01:28:36;;;;;;;21.92;13.82;;;;;;;0.80;100.00;100720.53;5072556;28;20229;-80
2022/01/11 01:31:03;;;;;;;24.50;12.52;;;;;;;0.91;100.00;100723.19;5072665;28;20284;-80
2022/01/11 01:33:31;;;;;;;23.95;12.07;;;;;;;1.06;100.00;100724.03;5072370;28;20195;-80
2022/01/11 01:36:01;;;;;;;35.85;14.25;;;;;;;1.06;100.00;100732.00;5065167;28;20221;-80
2022/01/11 01:38:29;;;;;;;23.42;12.32;;;;;;;1.11;100.00;100730.22;5068015;28;20202;-80
2022/01/11 01:41:03;;;;;;;23.52;12.48;;;;;;;1.21;100.00;100731.97;5072268;28;20304;-80
2022/01/11 01:43:31;;;;;;;23.60;13.15;;;;;;;0.92;100.00;100729.34;5073120;28;20188;-80
2022/01/11 01:46:00;;;;;;;22.38;12.15;;;;;;;1.12;100.00;100737.31;5072809;28;20217;-80
2022/01/11 01:48:27;;;;;;;20.58;12.43;;;;;;;1.16;100.00;100739.94;5071851;28;20291;-80
2022/01/11 01:50:54;;;;;;;24.10;14.20;;;;;;;1.24;100.00;100731.97;5072784;28;20667;-80
2022/01/11 01:53:21;;;;;;;22.00;12.57;;;;;;;1.51;100.00;100732.78;5072611;28;20229;-80
2022/01/11 01:55:48;;;;;;;21.40;12.68;;;;;;;1.51;100.00;100735.44;5072951;28;20228;-80
2022/01/11 01:58:17;;;;;;;19.27;12.10;;;;;;;1.60;100.00;100735.41;5072262;28;20221;-80
2022/01/11 02:00:51;;;;;;;24.13;13.60;;;;;;;1.15;100.00;100727.53;5071895;28;20219;-79
2022/01/11 02:03:25;;;;;;;24.10;12.77;;;;;;;0.92;100.00;100735.53;5073028;28;20201;-79
2022/01/11 02:05:53;;;;;;;24.65;11.68;;;;;;;0.87;100.00;100734.66;5072687;28;20517;-80
2022/01/11 02:08:20;;;;;;;26.80;12.15;;;;;;;0.83;100.00;100733.78;5072204;28;20208;-80
2022/01/11 02:10:47;;;;;;;20.58;11.48;;;;;;;0.95;100.00;100740.84;5071745;28;20290;-80
2022/01/11 02:13:14;;;;;;;19.85;12.50;;;;;;;1.17;100.00;100743.47;5072826;28;20191;-80
2022/01/11 02:15:42;;;;;;;20.38;11.48;;;;;;;1.39;100.00;100749.63;5072572;28;20228;-80
2022/01/11 02:18:11;;;;;;;17.13;11.75;;;;;;;1.22;100.00;100749.66;5072321;28;20197;-80
2022/01/11 02:20:40;;;;;;;21.00;12.38;;;;;;;1.27;100.00;100749.63;5072306;28;20942;-80
2022/01/11 02:23:07;;;;;;;21.10;12.45;;;;;;;1.13;100.00;100747.00;5072090;28;20205;-80
2022/01/11 02:25:34;;;;;;;21.88;12.93;;;;;;;0.76;100.00;100757.63;5072285;28;20197;-80
2022/01/11 02:28:01;;;;;;;22.05;12.95;;;;;;;0.96;100.00;100755.88;5072454;28;20198;-80
2022/01/11 02:30:32;;;;;;;20.90;12.30;;;;;;;1.14;100.00;100754.97;5071726;28;20287;-80
2022/01/11 02:32:58;;;;;;;17.85;11.40;;;;;;;1.33;100.00;100752.28;5072589;28;20674;-80
2022/01/11 02:35:25;;;;;;;18.85;12.32;;;;;;;1.24;100.00;100763.78;5072235;28;20193;-80
2022/01/11 02:37:53;;;;;;;21.05;12.27;;;;;;;1.35;100.00;100754.06;5072207;28;20240;-80
2022/01/11 02:40:20;;;;;;;26.65;13.40;;;;;;;1.22;100.00;100760.25;5070227;28;20212;-80
2022/01/11 02:42:47;;;;;;;23.77;13.50;;;;;;;1.34;100.00;100762.91;5072107;28;20196;-80
2022/01/11 02:45:15;;;;;;;20.77;11.68;;;;;;;1.35;100.00;100756.69;5071707;28;20221;-80
2022/01/11 02:47:44;;;;;;;17.95;11.40;;;;;;;1.51;100.00;100757.56;5072073;28;20603;-80
2022/01/11 02:50:12;;;;;;;29.48;12.63;;;;;;;1.10;100.00;100768.25;5071758;28;20232;-82
2022/01/11 02:52:39;;;;;;;19.50;11.38;;;;;;;0.92;100.00;100764.72;5071811;28;20195;-79
2022/01/11 02:55:10;;;;;;;24.60;11.82;;;;;;;0.89;100.00;100755.88;5065485;28;20741;-81
2022/01/11 02:57:38;;;;;;;20.33;13.10;;;;;;;0.97;100.00;100759.41;5071688;28;20312;-81
2022/01/11 03:00:06;;;;;;;20.13;11.70;;;;;;;1.15;100.00;100766.47;5071878;28;20185;-81
2022/01/11 03:02:32;;;;;;;23.35;12.60;;;;;;;1.03;100.00;100764.72;5064626;28;20299;-79
2022/01/11 03:04:59;;;;;;;25.00;11.90;;;;;;;0.74;100.00;100767.38;5073524;28;20292;-79
2022/01/11 03:07:26;;;;;;;23.90;11.55;;;;;;;0.84;100.00;100769.16;5075657;28;20631;-80
2022/01/11 03:10:02;;;;;;;24.42;11.07;;;;;;;0.55;100.00;100767.34;5072130;28;20286;-80
2022/01/11 03:12:31;;;;;;;19.55;11.13;;;;;;;0.45;100.00;100778.81;5067872;28;20504;-80
2022/01/11 03:14:58;;;;;;;27.77;12.55;;;;;;;0.33;100.00;100781.44;5075380;28;20191;-79
2022/01/11 03:17:26;;;;;;;22.00;12.50;;;;;;;0.36;100.00;100779.69;5067864;28;20275;-80
2022/01/11 03:19:53;;;;;;;28.05;12.07;;;;;;;0.31;100.00;100778.78;5075688;28;20198;-80
2022/01/11 03:22:20;;;;;;;24.08;12.55;;;;;;;0.48;100.00;100781.47;5074938;28;20224;-80
2022/01/11 03:24:47;;;;;;;21.65;11.85;;;;;;;0.38;100.00;100779.66;5075528;28;20720;-80
2022/01/11 03:27:14;;;;;;;29.15;12.15;;;;;;;0.42;100.00;100786.75;5074727;28;20231;-80
2022/01/11 03:29:42;;;;;;;27.88;14.35;;;;;;;0.46;100.00;100785.88;5075488;28;20199;-80
2022/01/11 03:32:10;;;;;;;21.52;12.95;;;;;;;0.61;100.00;100792.97;5074690;28;20222;-80
2022/01/11 03:34:36;;;;;;;23.95;12.13;;;;;;;0.48;100.00;100792.06;5074529;28;20622;-80
2022/01/11 03:37:03;;;;;;;25.55;13.43;;;;;;;0.68;100.00;100788.56;5066731;28;20291;-80
2022/01/11 03:39:32;;;;;;;23.20;13.10;;;;;;;0.62;100.00;100795.63;5075043;28;20619;-80
2022/01/11 03:41:58;;;;;;;21.30;12.60;;;;;;;0.61;100.00;100800.91;5074918;28;20713;-79
2022/01/11 03:44:25;;;;;;;21.00;11.80;;;;;;;0.66;100.00;100798.31;5074837;28;20717;-80
2022/01/11 03:46:53;;;;;;;21.02;12.07;;;;;;;0.70;100.00;100793.00;5075062;28;20209;-79
2022/01/11 03:49:20;;;;;;;20.40;12.73;;;;;;;0.83;100.00;100799.19;5074895;28;20647;-80
2022/01/11 03:51:49;;;;;;;20.00;12.50;;;;;;;0.69;100.00;100796.53;5075032;28;20618;-80
2022/01/11 03:54:22;;;;;;;18.58;12.18;;;;;;;0.72;100.00;100795.63;5066883;28;20191;-79
2022/01/11 03:56:49;;;;;;;17.00;12.02;;;;;;;0.56;100.00;100792.97;5073600;28;20236;-81
2022/01/11 03:59:16;;;;;;;21.75;13.02;;;;;;;0.40;100.00;100799.13;5074606;28;20231;-81
2022/01/11 04:01:43;;;;;;;16.92;11.25;;;;;;;0.66;100.00;100791.22;5074157;28;20246;-79
2022/01/11 04:04:12;;;;;;;17.95;11.70;;;;;;;0.75;100.00;100800.97;5073820;28;20660;-80
2022/01/11 04:06:39;;;;;;;19.55;10.57;;;;;;;0.78;100.00;100790.34;5070663;28;20207;-80
2022/01/11 04:09:07;;;;;;;18.00;12.23;;;;;;;0.40;100.00;100794.69;5073992;28;20290;-80
2022/01/11 04:11:34;;;;;;;17.05;10.45;;;;;;;-0.06;100.00;100791.03;5074441;28;20191;-80
2022/01/11 04:14:01;;;;;;;18.63;11.70;;;;;;;0.13;100.00;100800.78;5073640;28;20207;-80
2022/01/11 04:16:28;;;;;;;15.82;10.40;;;;;;;0.31;100.00;100797.31;5074301;28;20279;-80
2022/01/11 04:18:54;;;;;;;19.77;10.38;;;;;;;0.44;100.00;100794.72;5073798;28;20200;-80
2022/01/11 04:21:22;;;;;;;20.90;11.50;;;;;;;0.33;100.00;100797.34;5074218;28;20751;-80
2022/01/11 04:23:49;;;;;;;18.55;11.07;;;;;;;0.49;100.00;100801.78;5073973;28;20576;-80
2022/01/11 04:26:16;;;;;;;19.38;11.90;;;;;;;0.56;100.00;100803.56;5074227;28;20244;-80
2022/01/11 04:28:42;;;;;;;19.77;11.50;;;;;;;0.42;100.00;100805.31;5073872;28;20216;-80
2022/01/11 04:31:09;;;;;;;29.73;11.82;;;;;;;-0.02;100.00;100795.47;5074102;28;20286;-80
2022/01/11 04:33:36;;;;;;;21.05;11.95;;;;;;;0.19;100.00;100797.28;5073154;28;20195;-80
2022/01/11 04:36:03;;;;;;;22.25;11.05;;;;;;;0.31;100.00;100794.66;5066003;28;20668;-79
2022/01/11 04:38:32;;;;;;;22.45;11.80;;;;;;;0.24;100.00;100798.19;5068434;28;20295;-81
2022/01/11 04:40:59;;;;;;;22.75;11.48;;;;;;;-0.02;100.00;100803.41;5073226;28;20230;-80
2022/01/11 04:43:25;;;;;;;25.70;12.57;;;;;;;-0.13;100.00;100802.47;5074047;28;20923;-80
2022/01/11 04:45:52;;;;;;;29.20;12.57;;;;;;;0.14;100.00;100794.63;5073830;28;20679;-80
2022/01/11 04:48:19;;;;;;;19.92;12.90;;;;;;;0.21;100.00;100800.84;5073870;28;20199;-80
2022/01/11 04:50:46;;;;;;;20.30;12.20;;;;;;;0.35;100.00;100806.16;5073504;28;20257;-80
2022/01/11 04:53:13;;;;;;;19.90;12.73;;;;;;;0.20;100.00;100799.97;5073573;28;20270;-81
2022/01/11 04:55:42;;;;;;;21.13;12.82;;;;;;;0.29;100.00;100806.16;5073515;28;20299;-80
2022/01/11 04:58:09;;;;;;;19.05;12.40;;;;;;;0.41;100.00;100800.91;5073198;28;20573;-80
2022/01/11 05:00:36;;;;;;;19.67;12.50;;;;;;;0.34;100.00;100805.28;5073355;28;20553;-79
2022/01/11 05:03:03;;;;;;;25.05;13.95;;;;;;;0.27;100.00;100807.91;5073301;28;20226;-80
2022/01/11 05:05:30;;;;;;;23.08;12.88;;;;;;;0.31;100.00;100805.25;5071070;28;20208;-79
2022/01/11 05:07:57;;;;;;;26.70;13.73;;;;;;;0.39;100.00;100810.59;5066179;28;20286;-80
2022/01/11 05:10:24;;;;;;;23.88;13.32;;;;;;;0.51;100.00;100807.09;5073401;28;20298;-79
2022/01/11 05:12:53;;;;;;;28.17;12.10;;;;;;;0.25;100.00;100802.63;5073274;28;20184;-80
2022/01/11 05:15:20;;;;;;;20.58;12.75;;;;;;;0.22;100.00;100805.25;5073066;28;20289;-79
2022/01/11 05:17:48;;;;;;;21.67;14.15;;;;;;;0.26;100.00;100807.03;5073156;28;20205;-79
2022/01/11 05:20:16;;;;;;;20.40;13.70;;;;;;;0.05;100.00;100807.84;5073287;28;20282;-80
2022/01/11 05:22:44;;;;;;;24.10;13.40;;;;;;;0.04;100.00;100818.41;5072736;28;20221;-80
2022/01/11 05:25:13;;;;;;;26.27;13.65;;;;;;;-0.29;100.00;100815.63;5073185;28;20184;-80
2022/01/11 05:27:40;;;;;;;23.67;14.60;;;;;;;-0.25;100.00;100817.41;5072635;28;20189;-79
2022/01/11 05:30:10;;;;;;;25.52;13.68;;;;;;;-0.17;100.00;100819.22;5072591;28;20294;-80
2022/01/11 05:32:36;;;;;;;22.77;13.02;;;;;;;-0.48;100.00;100822.53;5075362;28;20202;-80
2022/01/11 05:35:04;;;;;;;21.63;14.27;;;;;;;-0.18;100.00;100818.34;5079333;28;20193;-80
2022/01/11 05:37:30;;;;;;;23.40;12.18;;;;;;;-0.09;100.00;100828.97;5076531;28;20243;-80
2022/01/11 05:39:58;;;;;;;19.42;12.80;;;;;;;-0.24;100.00;100827.13;5081767;28;20191;-80
2022/01/11 05:42:25;;;;;;;20.77;13.02;;;;;;;-0.28;100.00;100830.59;5082434;28;20203;-79
2022/01/11 05:44:52;;;;;;;21.00;12.55;;;;;;;-0.26;100.00;100843.88;5081163;28;20197;-79
2022/01/11 05:47:21;;;;;;;21.90;13.35;;;;;;;-0.16;100.00;100835.09;5079323;28;20234;-78
2022/01/11 05:49:47;;;;;;;22.60;14.15;;;;;;;-0.32;100.00;100839.41;5080326;28;20266;-79
2022/01/11 05:52:14;;;;;;;24.80;13.98;;;;;;;-0.18;100.00;100842.16;5080287;28;20195;-79
2022/01/11 05:54:41;;;;;;;21.17;13.68;;;;;;;-0.25;100.00;100842.97;5072416;28;20196;-79
2022/01/11 05:57:08;;;;;;;22.90;13.95;;;;;;;-0.44;100.00;100848.16;5079486;28;20278;-79
2022/01/11 05:59:34;;;;;;;22.35;13.57;;;;;;;-0.45;100.00;100850.81;5079347;28;20259;-79
2022/01/11 06:02:01;;;;;;;19.17;13.65;;;;;;;-0.42;100.00;100853.47;5079605;28;20243;-80
2022/01/11 06:04:29;;;;;;;20.55;12.88;;;;;;;-0.39;100.00;100853.47;5079800;28;20286;-80
2022/01/11 06:06:56;;;;;;;19.42;13.75;;;;;;;-0.14;100.00;100841.28;5078280;28;20267;-80
2022/01/11 06:09:26;;;;;;;25.95;14.23;;;;;;;-0.10;100.00;100856.31;5078026;28;20266;-80
2022/01/11 06:11:53;;;;;;;20.70;14.52;;;;;;;-0.31;100.00;100851.78;5077564;28;20192;-80
2022/01/11 06:14:23;;;;;;;22.30;13.57;;;;;;;-0.22;100.00;100856.25;5077600;28;20711;-79
2022/01/11 06:16:50;;;;;;;25.50;15.38;;;;;;;-0.34;100.00;100862.38;5074211;28;20226;-80
2022/01/11 06:19:16;;;;;;;24.10;14.75;;;;;;;-0.31;100.00;100857.06;5077127;28;20221;-80
2022/01/11 06:21:44;;;;;;;24.50;16.02;;;;;;;-0.48;100.00;100864.88;5075503;28;20281;-80
2022/01/11 06:24:11;;;;;;;24.70;14.15;;;;;;;-0.67;100.00;100863.88;5078271;28;20579;-80
2022/01/11 06:26:38;;;;;;;21.05;12.90;;;;;;;-0.49;100.00;100872.84;5079708;28;20224;-80
2022/01/11 06:29:05;;;;;;;22.13;12.93;;;;;;;-0.29;100.00;100865.03;5074731;28;20189;-80
2022/01/11 06:31:34;;;;;;;20.88;13.48;;;;;;;-0.56;100.00;100873.66;5073125;28;20281;-79
2022/01/11 06:34:01;;;;;;;23.27;13.57;;;;;;;-0.43;100.00;100867.56;5072170;28;20289;-79
2022/01/11 06:36:28;;;;;;;22.35;14.45;;;;;;;-0.58;100.00;100867.47;5064128;28;20239;-80
2022/01/11 06:38:56;;;;;;;25.95;15.10;;;;;;;-0.53;100.00;100871.03;5071499;28;20198;-80
2022/01/11 06:41:23;;;;;;;24.17;13.70;;;;;;;-0.46;100.00;100867.56;5075033;28;20194;-81
2022/01/11 06:43:52;;;;;;;21.08;13.05;;;;;;;-0.86;100.00;100876.06;5072886;28;20226;-80
2022/01/11 06:46:20;;;;;;;24.77;14.50;;;;;;;-0.66;100.00;100878.88;5075321;28;20240;-80
2022/01/11 06:48:47;;;;;;;28.00;15.43;;;;;;;-0.53;100.00;100886.91;5074938;28;20259;-80
2022/01/11 06:51:14;;;;;;;23.63;14.15;;;;;;;-0.50;100.00;100885.19;5076117;28;20371;-81
2022/01/11 06:53:40;;;;;;;19.40;13.50;;;;;;;-0.60;100.00;100887.75;5075327;28;20199;-81
2022/01/11 06:56:08;;;;;;;21.50;14.00;;;;;;;-0.46;100.00;100891.38;5074881;28;20195;-79
2022/01/11 06:58:35;;;;;;;19.50;13.10;;;;;;;-0.42;100.00;100887.88;5074630;28;20318;-79
2022/01/11 07:01:02;;;;;;;20.38;13.15;;;;;;;-0.48;100.00;100887.81;5075898;28;20275;-81
2022/01/11 07:03:29;;;;;;;23.50;13.80;;;;;;;-0.54;100.00;100883.38;5067851;28;20227;-81
2022/01/11 07:05:55;;;;;;;20.45;13.75;;;;;;;-0.50;100.00;100885.19;5074165;28;20593;-78
2022/01/11 07:08:23;;;;;;;21.65;14.15;;;;;;;-0.56;100.00;100892.19;5073682;28;20190;-77
2022/01/11 07:10:49;;;;;;;20.77;13.38;;;;;;;-0.58;100.00;100894.81;5073966;28;20202;-79
2022/01/11 07:13:18;;;;;;;24.77;14.68;;;;;;;-0.64;100.00;100887.69;5074248;28;20192;-78
2022/01/11 07:15:44;;;;;;;22.10;14.10;;;;;;;-0.48;100.00;100895.75;5074130;28;20636;-78
2022/01/11 07:18:12;;;;;;;20.48;13.30;;;;;;;-0.47;100.00;100889.59;5069993;28;20643;-80
2022/01/11 07:20:42;;;;;;;21.55;13.60;;;;;;;-0.32;100.00;100900.28;5075045;28;20589;-78
2022/01/11 07:23:09;;;;;;;24.17;14.55;;;;;;;-0.49;100.00;100904.59;5074323;28;20222;-83
2022/01/11 07:25:36;;;;;;;24.90;16.88;;;;;;;-0.58;100.00;100905.41;5074735;28;20610;-80
2022/01/11 07:28:04;;;;;;;21.45;13.77;;;;;;;-0.51;100.00;100912.50;5068511;28;20212;-79
2022/01/11 07:30:32;;;;;;;22.05;13.43;;;;;;;-0.68;100.00;100914.13;5075278;28;20641;-80
2022/01/11 07:32:59;;;;;;;23.00;14.38;;;;;;;-0.70;100.00;100919.41;5075967;28;20276;-78
2022/01/11 07:35:26;;;;;;;24.02;14.82;;;;;;;-0.63;100.00;100917.72;5075328;28;20201;-79
2022/01/11 07:37:53;;;;;;;21.08;14.15;;;;;;;-0.51;100.00;100922.22;5074255;28;20569;-78
2022/01/11 07:40:20;;;;;;;23.52;15.45;;;;;;;-0.44;100.00;100924.91;5074123;28;20225;-79
2022/01/11 07:42:48;;;;;;;22.00;14.52;;;;;;;-0.58;100.00;100918.63;5071898;28;20207;-78
2022/01/11 07:45:15;;;;;;;21.98;14.18;;;;;;;-0.49;100.00;100921.34;5073707;28;20221;-78
2022/01/11 07:47:44;;;;;;;22.35;15.70;;;;;;;-0.51;100.00;100924.84;5074786;28;20233;-79
2022/01/11 07:50:13;;;;;;;26.25;14.88;;;;;;;-0.50;100.00;100930.16;5073105;28;20286;-78
2022/01/11 07:52:40;;;;;;;26.83;14.25;;;;;;;-0.38;100.00;100933.78;5073930;28;20194;-78
2022/01/11 07:55:07;;;;;;;22.33;15.20;;;;;;;-0.34;100.00;100933.81;5074833;28;20240;-78
2022/01/11 07:57:34;;;;;;;23.40;15.60;;;;;;;-0.11;100.00;100941.94;5075182;28;20229;-79
2022/01/11 08:00:00;;;;;;;23.90;14.50;;;;;;;-0.12;100.00;100939.25;5076020;28;20221;-80
2022/01/11 08:02:27;;;;;;;21.95;13.23;;;;;;;-0.38;100.00;100934.66;5076849;28;20217;-79
2022/01/11 08:04:55;;;;;;;27.95;16.13;;;;;;;-0.31;100.00;100947.06;5077373;28;20257;-80
2022/01/11 08:07:25;;;;;;;21.42;14.52;;;;;;;-0.10;100.00;100946.34;5073595;28;20245;-80
2022/01/11 08:09:52;;;;;;;24.77;15.65;;;;;;;0.01;100.00;100959.66;5074896;28;20285;-80
2022/01/11 08:12:19;;;;;;;25.98;15.88;;;;;;;0.19;100.00;100954.47;5075895;28;20241;-78
2022/01/11 08:14:45;;;;;;;24.60;15.18;;;;;;;0.30;100.00;100953.66;5072075;28;20207;-79
2022/01/11 08:17:12;;;;;;;24.63;15.95;;;;;;;0.20;100.00;100950.97;5072798;28;20203;-79
2022/01/11 08:19:39;;;;;;;27.40;18.25;;;;;;;0.25;100.00;100956.28;5074019;28;20549;-79
2022/01/11 08:22:07;;;;;;;24.48;15.10;;;;;;;0.07;100.00;100957.06;5074052;28;20254;-78
2022/01/11 08:24:34;;;;;;;29.50;18.48;;;;;;;0.16;100.00;100954.47;5074860;28;20264;-79
2022/01/11 08:27:04;;;;;;;21.67;15.15;;;;;;;0.19;100.00;100962.41;5073820;28;20632;-79
2022/01/11 08:29:30;;;;;;;22.17;15.23;;;;;;;-0.06;100.00;100961.38;5074483;28;20329;-78
2022/01/11 08:31:57;;;;;;;22.80;14.75;;;;;;;-0.27;100.00;100961.19;5074146;28;20209;-79
2022/01/11 08:34:24;;;;;;;28.17;14.85;;;;;;;-0.28;100.00;100968.25;5074376;28;20233;-79
2022/01/11 08:36:53;;;;;;;28.95;16.48;;;;;;;0.01;100.00;100972.91;5073433;28;20207;-80
2022/01/11 08:39:21;;;;;;;20.98;14.95;;;;;;;0.05;100.00;100972.03;5075344;28;20215;-79
2022/01/11 08:41:48;;;;;;;23.58;16.15;;;;;;;0.08;100.00;100971.19;5076985;28;20654;-79
2022/01/11 08:44:19;;;;;;;25.35;14.55;;;;;;;0.16;100.00;100980.06;5074478;28;20676;-79
2022/01/11 08:46:47;;;;;;;20.98;14.38;;;;;;;0.24;100.00;100981.00;5073859;28;20306;-78
2022/01/11 08:49:14;;;;;;;22.58;15.52;;;;;;;0.29;100.00;100987.19;5073735;28;20635;-80
2022/01/11 08:51:41;;;;;;;26.63;13.90;;;;;;;0.33;100.00;100985.47;5073561;28;20679;-80
2022/01/11 08:54:09;;;;;;;25.05;15.57;;;;;;;0.09;100.00;100983.53;5074453;28;20594;-80
2022/01/11 08:56:37;;;;;;;21.73;14.50;;;;;;;0.22;100.00;100982.72;5077089;28;20263;-78
2022/01/11 08:59:04;;;;;;;23.85;15.20;;;;;;;0.18;100.00;100984.50;5073456;28;20241;-79
2022/01/11 09:01:31;;;;;;;23.20;14.68;;;;;;;0.22;100.00;100987.16;5073722;28;20234;-78
2022/01/11 09:03:58;;;;;;;29.00;15.77;;;;;;;0.26;100.00;100984.53;5072514;28;20257;-79
2022/01/11 09:06:25;;;;;;;23.83;15.73;;;;;;;0.59;100.00;100975.00;5071269;28;20200;-78
2022/01/11 09:08:52;;;;;;;25.48;14.82;;;;;;;0.53;100.00;100980.28;5052469;28;20371;-80
2022/01/11 09:11:18;;;;;;;26.83;15.70;;;;;;;0.58;100.00;100974.09;5054613;28;20236;-81
2022/01/11 09:13:46;;;;;;;23.27;15.57;;;;;;;0.69;100.00;100973.28;5061288;28;20200;-80
2022/01/11 09:16:15;;;;;;;22.58;14.55;;;;;;;0.72;100.00;100973.28;5072565;28;20204;-79
2022/01/11 09:18:42;;;;;;;24.05;16.23;;;;;;;0.69;100.00;100981.22;5077504;28;20190;-82
2022/01/11 09:21:09;;;;;;;23.08;16.20;;;;;;;0.84;100.00;100976.00;5075699;28;20302;-81
2022/01/11 09:23:36;;;;;;;25.92;15.40;;;;;;;0.86;100.00;100983.94;5077644;28;20231;-82
2022/01/11 09:26:03;;;;;;;24.02;15.13;;;;;;;0.81;100.00;100975.97;5075409;28;20198;-80
2022/01/11 09:28:30;;;;;;;25.83;15.15;;;;;;;1.16;100.00;100972.53;5072788;28;20282;-82
2022/01/11 09:30:58;;;;;;;22.70;15.27;;;;;;;1.55;100.00;100971.69;5072818;28;20287;-82
2022/01/11 09:33:25;;;;;;;23.63;15.13;;;;;;;1.84;100.00;100971.72;5073103;28;20654;-82
2022/01/11 09:35:52;;;;;;;23.83;16.02;;;;;;;2.26;100.00;100977.88;5072429;28;20529;-80
2022/01/11 09:38:18;;;;;;;28.30;17.20;;;;;;;2.53;100.00;100970.69;5073174;28;20237;-80
2022/01/11 09:40:45;;;;;;;23.90;16.30;;;;;;;2.36;100.00;100970.75;5067608;28;20288;-80
2022/01/11 09:43:13;;;;;;;26.63;16.00;;;;;;;2.71;100.00;100975.97;5053495;28;20308;-80
2022/01/11 09:45:39;;;;;;;26.23;16.00;;;;;;;3.01;100.00;100974.03;5052235;28;20192;-81
2022/01/11 09:48:09;;;;;;;25.55;15.65;;;;;;;2.71;100.00;100975.03;5052118;28;20274;-82
2022/01/11 09:50:36;;;;;;;27.05;17.10;;;;;;;2.82;100.00;100975.00;5051647;28;20252;-81
2022/01/11 09:53:04;;;;;;;29.77;19.10;;;;;;;2.74;100.00;100983.03;5051459;28;20636;-80
2022/01/11 09:55:31;;;;;;;23.40;16.40;;;;;;;2.49;100.00;100979.59;5051326;28;20296;-80
2022/01/11 09:57:57;;;;;;;23.88;16.00;;;;;;;2.59;100.00;100980.44;5051046;28;20276;-81
2022/01/11 10:00:24;;;;;;;29.70;17.50;;;;;;;2.40;100.00;100980.50;5051807;28;20603;-81
2022/01/11 10:02:51;;;;;;;24.00;16.52;;;;;;;2.48;100.00;100989.31;5051686;28;20287;-79
2022/01/11 10:05:19;;;;;;;23.60;14.88;;;;;;;2.62;100.00;100978.66;5052491;28;20599;-82
2022/01/11 10:07:46;;;;;;;27.13;17.23;;;;;;;2.42;100.00;100983.13;5052086;28;20273;-79
2022/01/11 10:10:16;;;;;;;23.35;16.65;;;;;;;2.39;100.00;100980.47;5053038;28;20225;-79
2022/01/11 10:12:45;;;;;;;29.10;19.38;;;;;;;2.48;100.00;100980.44;5051597;28;20309;-82
2022/01/11 10:15:13;;;;;;;22.95;16.95;;;;;;;2.70;100.00;100976.84;5055038;28;20218;-80
2022/01/11 10:17:42;;;;;;;27.15;15.82;;;;;;;2.71;100.00;100978.63;5055843;28;20244;-78
2022/01/11 10:20:11;;;;;;;23.55;17.30;;;;;;;2.84;100.00;100983.88;5057225;28;20723;-82
2022/01/11 10:22:49;;;;;;;24.83;16.00;;;;;;;2.92;100.00;100985.63;5067381;28;20228;-83
2022/01/11 10:25:17;;;;;;;26.20;17.88;;;;;;;2.86;100.00;100990.94;5078677;28;20193;-81
2022/01/11 10:27:44;;;;;;;25.00;17.55;;;;;;;2.67;100.00;100984.84;5075848;28;20212;-81
2022/01/11 10:30:12;;;;;;;24.38;16.20;;;;;;;2.96;100.00;100982.94;5075032;28;20201;-82
2022/01/11 10:32:41;;;;;;;25.92;18.08;;;;;;;3.06;100.00;100980.22;5079432;28;20189;-82
2022/01/11 10:35:11;;;;;;;23.48;16.70;;;;;;;3.19;100.00;100990.78;5076952;28;20197;-81
2022/01/11 10:37:41;;;;;;;20.17;14.40;;;;;;;3.50;100.00;100992.34;5078709;28;20253;-83
2022/01/11 10:40:14;;;;;;;24.00;14.77;;;;;;;3.39;100.00;100996.88;5078158;28;20196;-80
2022/01/11 10:42:45;;;;;;;26.42;17.45;;;;;;;3.41;100.00;100992.44;5075889;28;20587;-81
2022/01/11 10:45:14;;;;;;;21.17;15.02;;;;;;;3.30;100.00;100992.50;5075183;28;20181;-81
2022/01/11 10:47:47;;;;;;;20.98;13.38;;;;;;;3.35;100.00;100984.50;5076351;28;20192;-80
2022/01/11 10:50:18;;;;;;;21.45;14.13;;;;;;;3.48;100.00;100986.19;5075614;28;20220;-80
2022/01/11 10:52:45;;;;;;;21.88;16.30;;;;;;;3.79;100.00;100985.94;5068440;28;20278;-80
2022/01/11 10:55:17;;;;;;;22.13;14.52;;;;;;;4.00;100.00;100990.19;5055163;28;20205;-81
2022/01/11 10:57:48;;;;;;;19.75;14.02;;;;;;;3.93;100.00;100989.38;5055237;28;20240;-81
2022/01/11 11:00:27;;;;;;;24.52;15.48;;;;;;;4.08;100.00;100993.69;5054803;28;20190;-79
2022/01/11 11:03:00;;;;;;;22.77;14.38;;;;;;;3.90;100.00;101000.06;5055484;28;20600;-82
2022/01/11 11:05:33;;;;;;;24.65;15.07;;;;;;;3.80;100.00;100992.16;5060151;28;20194;-81
2022/01/11 11:08:04;;;;;;;21.52;13.68;;;;;;;4.00;100.00;101000.84;5055434;28;20224;-82
2022/01/11 11:10:38;;;;;;;18.00;13.18;;;;;;;4.29;100.00;101000.59;5054431;28;20300;-81